sensor_id;sensor_type;location;lat;lon;timestamp;temperature;humidity
5023;DHT22;2530;47.990;7.866;2023-10-08T00:02:49;12.20;1.00
5023;DHT22;2530;47.990;7.866;2023-10-08T00:05:14;11.90;1.00
5023;DHT22;2530;47.990;7.866;2023-10-08T00:07:41;11.90;1.00
5023;DHT22;2530;47.990;7.866;2023-10-08T00:10:08;11.80;1.00
5023;DHT22;2530;47.990;7.866;2023-10-08T00:12:34;11.80;1.00
5023;DHT22;2530;47.990;7.866;2023-10-08T00:15:00;11.40;1.00
5023;DHT22;2530;47.990;7.866;2023-10-08T00:17:32;11.70;1.00
5023;DHT22;2530;47.990;7.866;2023-10-08T00:19:58;11.60;1.00
5023;DHT22;2530;47.990;7.866;2023-10-08T00:22:26;11.50;1.00
5023;DHT22;2530;47.990;7.866;2023-10-08T00:24:54;11.50;1.00
5023;DHT22;2530;47.990;7.866;2023-10-08T00:27:23;11.50;1.00
5023;DHT22;2530;47.990;7.866;2023-10-08T00:29:51;11.40;1.00
5023;DHT22;2530;47.990;7.866;2023-10-08T00:32:17;11.30;1.00
5023;DHT22;2530;47.990;7.866;2023-10-08T00:34:44;11.50;1.00
5023;DHT22;2530;47.990;7.866;2023-10-08T00:37:10;11.30;1.00
5023;DHT22;2530;47.990;7.866;2023-10-08T00:39:37;11.40;1.00
5023;DHT22;2530;47.990;7.866;2023-10-08T00:42:05;11.30;1.00
5023;DHT22;2530;47.990;7.866;2023-10-08T00:44:33;11.20;1.00
5023;DHT22;2530;47.990;7.866;2023-10-08T00:47:03;10.90;1.00
5023;DHT22;2530;47.990;7.866;2023-10-08T00:49:30;11.60;1.00
5023;DHT22;2530;47.990;7.866;2023-10-08T00:52:12;11.60;1.00
5023;DHT22;2530;47.990;7.866;2023-10-08T00:54:42;11.40;1.00
5023;DHT22;2530;47.990;7.866;2023-10-08T00:57:19;11.10;1.00
5023;DHT22;2530;47.990;7.866;2023-10-08T00:59:47;11.50;1.00
5023;DHT22;2530;47.990;7.866;2023-10-08T01:02:26;11.30;1.00
5023;DHT22;2530;47.990;7.866;2023-10-08T01:04:54;11.50;1.00
5023;DHT22;2530;47.990;7.866;2023-10-08T01:07:24;11.60;1.00
5023;DHT22;2530;47.990;7.866;2023-10-08T01:09:50;11.50;1.00
5023;DHT22;2530;47.990;7.866;2023-10-08T01:12:23;12.10;1.00
5023;DHT22;2530;47.990;7.866;2023-10-08T01:15:09;11.60;1.00
5023;DHT22;2530;47.990;7.866;2023-10-08T01:18:12;11.40;1.00
5023;DHT22;2530;47.990;7.866;2023-10-08T01:20:43;11.60;1.00
5023;DHT22;2530;47.990;7.866;2023-10-08T01:23:10;11.30;1.00
5023;DHT22;2530;47.990;7.866;2023-10-08T01:25:45;11.40;1.00
5023;DHT22;2530;47.990;7.866;2023-10-08T01:28:16;11.20;1.00
5023;DHT22;2530;47.990;7.866;2023-10-08T01:30:56;13.30;1.00
5023;DHT22;2530;47.990;7.866;2023-10-08T01:33:32;10.30;1.00
5023;DHT22;2530;47.990;7.866;2023-10-08T01:36:03;11.00;1.00
5023;DHT22;2530;47.990;7.866;2023-10-08T01:38:31;11.30;1.00
5023;DHT22;2530;47.990;7.866;2023-10-08T01:40:58;11.10;1.00
5023;DHT22;2530;47.990;7.866;2023-10-08T01:43:47;11.20;1.00
5023;DHT22;2530;47.990;7.866;2023-10-08T01:46:13;11.60;1.00
5023;DHT22;2530;47.990;7.866;2023-10-08T01:48:41;11.10;1.00
5023;DHT22;2530;47.990;7.866;2023-10-08T01:51:10;11.40;1.00
5023;DHT22;2530;47.990;7.866;2023-10-08T01:53:40;10.00;1.00
5023;DHT22;2530;47.990;7.866;2023-10-08T01:56:06;10.90;1.00
5023;DHT22;2530;47.990;7.866;2023-10-08T01:58:32;10.60;1.00
5023;DHT22;2530;47.990;7.866;2023-10-08T02:00:59;10.40;1.00
5023;DHT22;2530;47.990;7.866;2023-10-08T02:03:26;10.70;1.00
5023;DHT22;2530;47.990;7.866;2023-10-08T02:05:53;10.80;1.00
5023;DHT22;2530;47.990;7.866;2023-10-08T02:08:20;10.80;1.00
5023;DHT22;2530;47.990;7.866;2023-10-08T02:10:45;11.20;1.00
5023;DHT22;2530;47.990;7.866;2023-10-08T02:13:13;11.10;1.00
5023;DHT22;2530;47.990;7.866;2023-10-08T02:15:50;10.70;1.00
5023;DHT22;2530;47.990;7.866;2023-10-08T02:18:19;10.80;1.00
5023;DHT22;2530;47.990;7.866;2023-10-08T02:20:45;10.80;1.00
5023;DHT22;2530;47.990;7.866;2023-10-08T02:23:11;10.50;1.00
5023;DHT22;2530;47.990;7.866;2023-10-08T02:25:38;10.60;1.00
5023;DHT22;2530;47.990;7.866;2023-10-08T02:28:08;10.70;1.00
5023;DHT22;2530;47.990;7.866;2023-10-08T02:30:34;10.90;1.00
5023;DHT22;2530;47.990;7.866;2023-10-08T02:33:01;10.80;1.00
5023;DHT22;2530;47.990;7.866;2023-10-08T02:35:27;10.90;1.00
5023;DHT22;2530;47.990;7.866;2023-10-08T02:37:53;10.80;1.00
5023;DHT22;2530;47.990;7.866;2023-10-08T02:40:20;10.60;1.00
5023;DHT22;2530;47.990;7.866;2023-10-08T02:42:51;10.80;1.00
5023;DHT22;2530;47.990;7.866;2023-10-08T02:45:19;10.90;1.00
5023;DHT22;2530;47.990;7.866;2023-10-08T02:47:47;10.60;1.00
5023;DHT22;2530;47.990;7.866;2023-10-08T02:50:12;10.50;1.00
5023;DHT22;2530;47.990;7.866;2023-10-08T02:52:43;11.70;1.00
5023;DHT22;2530;47.990;7.866;2023-10-08T02:55:10;10.60;1.00
5023;DHT22;2530;47.990;7.866;2023-10-08T02:57:43;10.90;1.00
5023;DHT22;2530;47.990;7.866;2023-10-08T03:00:09;10.80;1.00
5023;DHT22;2530;47.990;7.866;2023-10-08T03:02:39;10.80;1.00
5023;DHT22;2530;47.990;7.866;2023-10-08T03:05:05;10.40;1.00
5023;DHT22;2530;47.990;7.866;2023-10-08T03:07:33;10.80;1.00
5023;DHT22;2530;47.990;7.866;2023-10-08T03:10:01;10.50;1.00
5023;DHT22;2530;47.990;7.866;2023-10-08T03:12:34;10.40;1.00
5023;DHT22;2530;47.990;7.866;2023-10-08T03:15:02;10.80;1.00
5023;DHT22;2530;47.990;7.866;2023-10-08T03:17:46;10.70;1.00
5023;DHT22;2530;47.990;7.866;2023-10-08T03:20:17;10.30;1.00
5023;DHT22;2530;47.990;7.866;2023-10-08T03:23:03;10.30;1.00
5023;DHT22;2530;47.990;7.866;2023-10-08T03:25:38;10.60;1.00
5023;DHT22;2530;47.990;7.866;2023-10-08T03:28:07;11.00;1.00
5023;DHT22;2530;47.990;7.866;2023-10-08T03:30:34;9.80;1.00
5023;DHT22;2530;47.990;7.866;2023-10-08T03:33:13;10.00;1.00
5023;DHT22;2530;47.990;7.866;2023-10-08T03:35:50;10.30;1.00
5023;DHT22;2530;47.990;7.866;2023-10-08T03:38:20;10.10;1.00
5023;DHT22;2530;47.990;7.866;2023-10-08T03:41:05;10.20;1.00
5023;DHT22;2530;47.990;7.866;2023-10-08T03:43:34;10.20;1.00
5023;DHT22;2530;47.990;7.866;2023-10-08T03:46:07;10.30;1.00
5023;DHT22;2530;47.990;7.866;2023-10-08T03:48:40;11.30;1.00
5023;DHT22;2530;47.990;7.866;2023-10-08T03:51:10;10.40;1.00
5023;DHT22;2530;47.990;7.866;2023-10-08T03:53:40;10.30;1.00
5023;DHT22;2530;47.990;7.866;2023-10-08T03:56:26;10.30;1.00
5023;DHT22;2530;47.990;7.866;2023-10-08T03:58:55;10.10;1.00
5023;DHT22;2530;47.990;7.866;2023-10-08T04:01:21;10.50;1.00
5023;DHT22;2530;47.990;7.866;2023-10-08T04:03:47;10.60;1.00
5023;DHT22;2530;47.990;7.866;2023-10-08T04:06:21;10.30;1.00
5023;DHT22;2530;47.990;7.866;2023-10-08T04:09:03;10.60;1.00
5023;DHT22;2530;47.990;7.866;2023-10-08T04:11:38;11.90;1.00
5023;DHT22;2530;47.990;7.866;2023-10-08T04:14:27;10.80;1.00
5023;DHT22;2530;47.990;7.866;2023-10-08T04:16:53;10.60;1.00
5023;DHT22;2530;47.990;7.866;2023-10-08T04:19:20;10.40;1.00
5023;DHT22;2530;47.990;7.866;2023-10-08T04:21:47;10.90;1.00
5023;DHT22;2530;47.990;7.866;2023-10-08T04:24:20;10.80;1.00
5023;DHT22;2530;47.990;7.866;2023-10-08T04:26:46;10.50;1.00
5023;DHT22;2530;47.990;7.866;2023-10-08T04:29:12;10.70;1.00
5023;DHT22;2530;47.990;7.866;2023-10-08T04:31:41;11.30;1.00
5023;DHT22;2530;47.990;7.866;2023-10-08T04:34:12;11.30;1.00
5023;DHT22;2530;47.990;7.866;2023-10-08T04:36:48;10.80;1.00
5023;DHT22;2530;47.990;7.866;2023-10-08T04:39:23;10.80;1.00
5023;DHT22;2530;47.990;7.866;2023-10-08T04:41:57;10.80;1.00
5023;DHT22;2530;47.990;7.866;2023-10-08T04:44:31;10.70;1.00
5023;DHT22;2530;47.990;7.866;2023-10-08T04:46:57;10.90;1.00
5023;DHT22;2530;47.990;7.866;2023-10-08T04:49:30;10.90;1.00
5023;DHT22;2530;47.990;7.866;2023-10-08T04:52:06;10.40;1.00
5023;DHT22;2530;47.990;7.866;2023-10-08T04:54:41;10.90;1.00
5023;DHT22;2530;47.990;7.866;2023-10-08T04:57:12;10.70;1.00
5023;DHT22;2530;47.990;7.866;2023-10-08T04:59:41;9.80;1.00
5023;DHT22;2530;47.990;7.866;2023-10-08T05:02:07;10.80;1.00
5023;DHT22;2530;47.990;7.866;2023-10-08T05:04:46;10.60;1.00
5023;DHT22;2530;47.990;7.866;2023-10-08T05:07:21;10.20;1.00
5023;DHT22;2530;47.990;7.866;2023-10-08T05:10:26;10.40;1.00
5023;DHT22;2530;47.990;7.866;2023-10-08T05:12:53;10.50;1.00
5023;DHT22;2530;47.990;7.866;2023-10-08T05:15:44;10.50;1.00
5023;DHT22;2530;47.990;7.866;2023-10-08T05:18:44;10.40;1.00
5023;DHT22;2530;47.990;7.866;2023-10-08T05:21:28;10.50;1.00
5023;DHT22;2530;47.990;7.866;2023-10-08T05:24:06;10.40;1.00
5023;DHT22;2530;47.990;7.866;2023-10-08T05:26:41;10.80;1.00
5023;DHT22;2530;47.990;7.866;2023-10-08T05:29:14;10.50;1.00
5023;DHT22;2530;47.990;7.866;2023-10-08T05:32:15;10.90;1.00
5023;DHT22;2530;47.990;7.866;2023-10-08T05:35:04;10.30;1.00
5023;DHT22;2530;47.990;7.866;2023-10-08T05:37:48;11.00;1.00
5023;DHT22;2530;47.990;7.866;2023-10-08T05:40:17;10.60;1.00
5023;DHT22;2530;47.990;7.866;2023-10-08T05:43:08;10.90;1.00
5023;DHT22;2530;47.990;7.866;2023-10-08T05:45:48;11.10;1.00
5023;DHT22;2530;47.990;7.866;2023-10-08T05:48:34;10.90;1.00
5023;DHT22;2530;47.990;7.866;2023-10-08T05:51:10;11.00;1.00
5023;DHT22;2530;47.990;7.866;2023-10-08T05:53:49;11.00;1.00
5023;DHT22;2530;47.990;7.866;2023-10-08T05:56:21;10.70;1.00
5023;DHT22;2530;47.990;7.866;2023-10-08T05:59:07;10.90;1.00
5023;DHT22;2530;47.990;7.866;2023-10-08T06:01:43;11.00;1.00
5023;DHT22;2530;47.990;7.866;2023-10-08T06:04:11;11.00;1.00
5023;DHT22;2530;47.990;7.866;2023-10-08T06:06:56;11.00;1.00
5023;DHT22;2530;47.990;7.866;2023-10-08T06:09:38;10.90;1.00
5023;DHT22;2530;47.990;7.866;2023-10-08T06:12:05;10.80;1.00
5023;DHT22;2530;47.990;7.866;2023-10-08T06:14:45;11.20;1.00
5023;DHT22;2530;47.990;7.866;2023-10-08T06:17:29;11.00;1.00
5023;DHT22;2530;47.990;7.866;2023-10-08T06:20:22;10.90;1.00
5023;DHT22;2530;47.990;7.866;2023-10-08T06:22:51;11.10;1.00
5023;DHT22;2530;47.990;7.866;2023-10-08T06:25:19;11.20;1.00
5023;DHT22;2530;47.990;7.866;2023-10-08T06:27:49;10.30;1.00
5023;DHT22;2530;47.990;7.866;2023-10-08T06:30:19;10.80;1.00
5023;DHT22;2530;47.990;7.866;2023-10-08T06:32:44;11.50;1.00
5023;DHT22;2530;47.990;7.866;2023-10-08T06:35:11;11.40;1.00
5023;DHT22;2530;47.990;7.866;2023-10-08T06:37:46;11.60;1.00
5023;DHT22;2530;47.990;7.866;2023-10-08T06:40:15;11.10;1.00
5023;DHT22;2530;47.990;7.866;2023-10-08T06:42:59;11.30;1.00
5023;DHT22;2530;47.990;7.866;2023-10-08T06:45:29;11.20;1.00
5023;DHT22;2530;47.990;7.866;2023-10-08T06:48:01;11.40;1.00
5023;DHT22;2530;47.990;7.866;2023-10-08T06:50:31;12.00;1.00
5023;DHT22;2530;47.990;7.866;2023-10-08T06:53:03;10.90;1.00
5023;DHT22;2530;47.990;7.866;2023-10-08T06:55:40;11.80;1.00
5023;DHT22;2530;47.990;7.866;2023-10-08T06:58:06;13.20;1.00
5023;DHT22;2530;47.990;7.866;2023-10-08T07:00:36;12.00;1.00
5023;DHT22;2530;47.990;7.866;2023-10-08T07:03:15;11.80;1.00
5023;DHT22;2530;47.990;7.866;2023-10-08T07:05:46;12.00;1.00
5023;DHT22;2530;47.990;7.866;2023-10-08T07:08:31;12.00;1.00
5023;DHT22;2530;47.990;7.866;2023-10-08T07:10:58;10.90;1.00
5023;DHT22;2530;47.990;7.866;2023-10-08T07:13:30;11.50;1.00
5023;DHT22;2530;47.990;7.866;2023-10-08T07:15:56;11.70;1.00
5023;DHT22;2530;47.990;7.866;2023-10-08T07:18:22;12.30;1.00
5023;DHT22;2530;47.990;7.866;2023-10-08T07:20:52;15.20;1.00
5023;DHT22;2530;47.990;7.866;2023-10-08T07:23:23;12.40;1.00
5023;DHT22;2530;47.990;7.866;2023-10-08T07:25:57;12.30;1.00
5023;DHT22;2530;47.990;7.866;2023-10-08T07:28:39;14.90;1.00
5023;DHT22;2530;47.990;7.866;2023-10-08T07:31:13;12.40;1.00
5023;DHT22;2530;47.990;7.866;2023-10-08T07:33:41;12.60;1.00
5023;DHT22;2530;47.990;7.866;2023-10-08T07:36:10;12.50;1.00
5023;DHT22;2530;47.990;7.866;2023-10-08T07:38:42;12.40;1.00
5023;DHT22;2530;47.990;7.866;2023-10-08T07:41:11;12.40;1.00
5023;DHT22;2530;47.990;7.866;2023-10-08T07:43:42;12.60;1.00
5023;DHT22;2530;47.990;7.866;2023-10-08T07:46:08;12.50;1.00
5023;DHT22;2530;47.990;7.866;2023-10-08T07:48:35;12.80;1.00
5023;DHT22;2530;47.990;7.866;2023-10-08T07:51:00;12.90;1.00
5023;DHT22;2530;47.990;7.866;2023-10-08T07:53:27;13.20;1.00
5023;DHT22;2530;47.990;7.866;2023-10-08T07:56:04;13.50;1.00
5023;DHT22;2530;47.990;7.866;2023-10-08T07:58:32;13.70;1.00
5023;DHT22;2530;47.990;7.866;2023-10-08T08:03:46;14.00;1.00
5023;DHT22;2530;47.990;7.866;2023-10-08T08:06:14;14.00;1.00
5023;DHT22;2530;47.990;7.866;2023-10-08T08:08:45;14.10;1.00
5023;DHT22;2530;47.990;7.866;2023-10-08T08:11:11;14.30;1.00
5023;DHT22;2530;47.990;7.866;2023-10-08T08:13:46;14.40;1.00
5023;DHT22;2530;47.990;7.866;2023-10-08T08:16:13;14.70;1.00
5023;DHT22;2530;47.990;7.866;2023-10-08T08:18:51;14.80;1.00
5023;DHT22;2530;47.990;7.866;2023-10-08T08:21:23;15.00;1.00
5023;DHT22;2530;47.990;7.866;2023-10-08T08:23:56;15.00;1.00
5023;DHT22;2530;47.990;7.866;2023-10-08T08:26:30;15.50;1.00
5023;DHT22;2530;47.990;7.866;2023-10-08T08:29:04;15.30;1.00
5023;DHT22;2530;47.990;7.866;2023-10-08T08:31:34;15.70;1.00
5023;DHT22;2530;47.990;7.866;2023-10-08T08:34:06;15.60;1.00
5023;DHT22;2530;47.990;7.866;2023-10-08T08:36:39;15.90;1.00
5023;DHT22;2530;47.990;7.866;2023-10-08T08:39:11;15.90;1.00
5023;DHT22;2530;47.990;7.866;2023-10-08T08:41:59;16.20;1.00
5023;DHT22;2530;47.990;7.866;2023-10-08T08:44:41;16.20;1.00
5023;DHT22;2530;47.990;7.866;2023-10-08T08:47:26;16.40;1.00
5023;DHT22;2530;47.990;7.866;2023-10-08T08:50:06;16.60;1.00
5023;DHT22;2530;47.990;7.866;2023-10-08T08:52:41;18.20;1.00
5023;DHT22;2530;47.990;7.866;2023-10-08T08:55:11;16.80;1.00
5023;DHT22;2530;47.990;7.866;2023-10-08T08:57:44;17.20;1.00
5023;DHT22;2530;47.990;7.866;2023-10-08T09:00:16;17.30;1.00
5023;DHT22;2530;47.990;7.866;2023-10-08T09:02:50;17.40;1.00
5023;DHT22;2530;47.990;7.866;2023-10-08T09:05:24;17.20;1.00
5023;DHT22;2530;47.990;7.866;2023-10-08T09:08:07;17.30;1.00
5023;DHT22;2530;47.990;7.866;2023-10-08T09:10:41;17.70;1.00
5023;DHT22;2530;47.990;7.866;2023-10-08T09:16:17;19.00;1.00
5023;DHT22;2530;47.990;7.866;2023-10-08T09:18:47;17.90;1.00
5023;DHT22;2530;47.990;7.866;2023-10-08T09:21:20;20.40;1.00
5023;DHT22;2530;47.990;7.866;2023-10-08T09:24:04;19.60;1.00
5023;DHT22;2530;47.990;7.866;2023-10-08T09:26:54;18.30;1.00
5023;DHT22;2530;47.990;7.866;2023-10-08T09:29:37;18.70;1.00
5023;DHT22;2530;47.990;7.866;2023-10-08T09:32:31;18.80;1.00
5023;DHT22;2530;47.990;7.866;2023-10-08T09:35:06;18.80;1.00
5023;DHT22;2530;47.990;7.866;2023-10-08T09:37:48;18.80;1.00
5023;DHT22;2530;47.990;7.866;2023-10-08T09:40:17;18.80;1.00
5023;DHT22;2530;47.990;7.866;2023-10-08T09:42:50;18.80;1.00
5023;DHT22;2530;47.990;7.866;2023-10-08T09:45:22;18.90;1.00
5023;DHT22;2530;47.990;7.866;2023-10-08T09:48:10;19.10;1.00
5023;DHT22;2530;47.990;7.866;2023-10-08T09:53:44;20.50;1.00
5023;DHT22;2530;47.990;7.866;2023-10-08T09:56:29;19.20;1.00
5023;DHT22;2530;47.990;7.866;2023-10-08T09:59:12;19.00;1.00
5023;DHT22;2530;47.990;7.866;2023-10-08T10:01:42;19.80;1.00
5023;DHT22;2530;47.990;7.866;2023-10-08T10:04:24;19.70;1.00
5023;DHT22;2530;47.990;7.866;2023-10-08T10:06:57;19.80;1.00
5023;DHT22;2530;47.990;7.866;2023-10-08T10:09:36;20.40;1.00
5023;DHT22;2530;47.990;7.866;2023-10-08T10:12:02;19.90;1.00
5023;DHT22;2530;47.990;7.866;2023-10-08T10:14:50;20.20;1.00
5023;DHT22;2530;47.990;7.866;2023-10-08T10:19:55;20.40;1.00
5023;DHT22;2530;47.990;7.866;2023-10-08T10:32:54;20.30;1.00
5023;DHT22;2530;47.990;7.866;2023-10-08T10:35:26;20.40;1.00
5023;DHT22;2530;47.990;7.866;2023-10-08T10:38:04;20.40;1.00
5023;DHT22;2530;47.990;7.866;2023-10-08T10:40:39;23.80;1.00
5023;DHT22;2530;47.990;7.866;2023-10-08T10:43:25;20.30;1.00
5023;DHT22;2530;47.990;7.866;2023-10-08T10:46:16;23.10;1.00
5023;DHT22;2530;47.990;7.866;2023-10-08T10:52:46;20.40;1.00
5023;DHT22;2530;47.990;7.866;2023-10-08T10:55:44;20.80;1.00
5023;DHT22;2530;47.990;7.866;2023-10-08T10:58:28;20.90;1.00
5023;DHT22;2530;47.990;7.866;2023-10-08T11:04:13;21.60;1.00
5023;DHT22;2530;47.990;7.866;2023-10-08T11:06:51;23.10;1.00
5023;DHT22;2530;47.990;7.866;2023-10-08T11:09:36;22.00;1.00
5023;DHT22;2530;47.990;7.866;2023-10-08T11:12:40;22.30;1.00
5023;DHT22;2530;47.990;7.866;2023-10-08T11:22:58;24.20;1.00
5023;DHT22;2530;47.990;7.866;2023-10-08T11:26:11;22.80;1.00
5023;DHT22;2530;47.990;7.866;2023-10-08T13:35:16;26.10;1.00
5023;DHT22;2530;47.990;7.866;2023-10-08T13:37:47;28.30;1.00
5023;DHT22;2530;47.990;7.866;2023-10-08T13:40:26;27.10;1.00
5023;DHT22;2530;47.990;7.866;2023-10-08T13:43:13;29.10;1.00
5023;DHT22;2530;47.990;7.866;2023-10-08T13:46:03;27.60;1.00
5023;DHT22;2530;47.990;7.866;2023-10-08T13:48:48;27.70;1.00
5023;DHT22;2530;47.990;7.866;2023-10-08T13:51:23;27.30;1.00
5023;DHT22;2530;47.990;7.866;2023-10-08T13:54:00;27.20;1.00
5023;DHT22;2530;47.990;7.866;2023-10-08T13:56:34;27.00;1.00
5023;DHT22;2530;47.990;7.866;2023-10-08T13:59:25;27.00;1.00
5023;DHT22;2530;47.990;7.866;2023-10-08T14:02:24;26.80;1.00
5023;DHT22;2530;47.990;7.866;2023-10-08T14:05:21;26.70;1.00
5023;DHT22;2530;47.990;7.866;2023-10-08T14:08:04;27.80;1.00
5023;DHT22;2530;47.990;7.866;2023-10-08T14:10:51;26.10;1.00
5023;DHT22;2530;47.990;7.866;2023-10-08T14:13:19;26.30;1.00
5023;DHT22;2530;47.990;7.866;2023-10-08T14:15:54;26.40;1.00
5023;DHT22;2530;47.990;7.866;2023-10-08T14:18:23;27.20;1.00
5023;DHT22;2530;47.990;7.866;2023-10-08T14:21:23;26.30;1.00
5023;DHT22;2530;47.990;7.866;2023-10-08T14:23:58;26.40;1.00
5023;DHT22;2530;47.990;7.866;2023-10-08T14:26:35;26.00;1.00
5023;DHT22;2530;47.990;7.866;2023-10-08T14:29:07;28.60;1.00
5023;DHT22;2530;47.990;7.866;2023-10-08T14:31:50;26.70;1.00
5023;DHT22;2530;47.990;7.866;2023-10-08T14:34:21;26.60;1.00
5023;DHT22;2530;47.990;7.866;2023-10-08T14:37:15;25.00;1.00
5023;DHT22;2530;47.990;7.866;2023-10-08T14:40:06;24.70;1.00
5023;DHT22;2530;47.990;7.866;2023-10-08T14:42:53;24.60;1.00
5023;DHT22;2530;47.990;7.866;2023-10-08T14:45:35;23.90;1.00
5023;DHT22;2530;47.990;7.866;2023-10-08T14:48:06;23.90;1.00
5023;DHT22;2530;47.990;7.866;2023-10-08T14:50:36;23.60;1.00
5023;DHT22;2530;47.990;7.866;2023-10-08T14:53:04;23.50;1.00
5023;DHT22;2530;47.990;7.866;2023-10-08T14:55:44;24.30;1.00
5023;DHT22;2530;47.990;7.866;2023-10-08T14:58:15;23.50;1.00
5023;DHT22;2530;47.990;7.866;2023-10-08T15:00:40;23.90;1.00
5023;DHT22;2530;47.990;7.866;2023-10-08T15:03:15;25.70;1.00
5023;DHT22;2530;47.990;7.866;2023-10-08T15:05:47;23.30;1.00
5023;DHT22;2530;47.990;7.866;2023-10-08T15:08:17;23.30;1.00
5023;DHT22;2530;47.990;7.866;2023-10-08T15:10:50;23.30;1.00
5023;DHT22;2530;47.990;7.866;2023-10-08T15:13:26;21.40;1.00
5023;DHT22;2530;47.990;7.866;2023-10-08T15:15:59;22.80;1.00
5023;DHT22;2530;47.990;7.866;2023-10-08T15:18:29;22.90;1.00
5023;DHT22;2530;47.990;7.866;2023-10-08T15:20:57;22.70;1.00
5023;DHT22;2530;47.990;7.866;2023-10-08T15:23:25;22.60;1.00
5023;DHT22;2530;47.990;7.866;2023-10-08T15:25:53;22.40;1.00
5023;DHT22;2530;47.990;7.866;2023-10-08T15:28:21;22.20;1.00
5023;DHT22;2530;47.990;7.866;2023-10-08T15:30:47;22.20;1.00
5023;DHT22;2530;47.990;7.866;2023-10-08T15:33:22;22.20;1.00
5023;DHT22;2530;47.990;7.866;2023-10-08T15:35:58;22.10;1.00
5023;DHT22;2530;47.990;7.866;2023-10-08T15:41:07;21.80;1.00
5023;DHT22;2530;47.990;7.866;2023-10-08T15:43:38;21.50;1.00
5023;DHT22;2530;47.990;7.866;2023-10-08T15:46:07;21.30;1.00
5023;DHT22;2530;47.990;7.866;2023-10-08T15:48:42;19.80;1.00
5023;DHT22;2530;47.990;7.866;2023-10-08T15:51:11;21.20;1.00
5023;DHT22;2530;47.990;7.866;2023-10-08T15:53:39;21.30;1.00
5023;DHT22;2530;47.990;7.866;2023-10-08T15:56:08;20.80;1.00
5023;DHT22;2530;47.990;7.866;2023-10-08T15:58:45;20.70;1.00
5023;DHT22;2530;47.990;7.866;2023-10-08T16:01:27;21.40;1.00
5023;DHT22;2530;47.990;7.866;2023-10-08T16:04:09;21.50;1.00
5023;DHT22;2530;47.990;7.866;2023-10-08T16:06:50;21.00;1.00
5023;DHT22;2530;47.990;7.866;2023-10-08T16:09:17;20.70;1.00
5023;DHT22;2530;47.990;7.866;2023-10-08T16:11:43;20.30;1.00
5023;DHT22;2530;47.990;7.866;2023-10-08T16:14:14;20.70;1.00
5023;DHT22;2530;47.990;7.866;2023-10-08T16:16:44;19.80;1.00
5023;DHT22;2530;47.990;7.866;2023-10-08T16:19:19;22.00;1.00
5023;DHT22;2530;47.990;7.866;2023-10-08T16:21:56;20.10;1.00
5023;DHT22;2530;47.990;7.866;2023-10-08T16:24:25;19.80;1.00
5023;DHT22;2530;47.990;7.866;2023-10-08T16:26:53;19.60;1.00
5023;DHT22;2530;47.990;7.866;2023-10-08T16:29:25;19.00;1.00
5023;DHT22;2530;47.990;7.866;2023-10-08T16:31:51;22.60;1.00
5023;DHT22;2530;47.990;7.866;2023-10-08T16:34:16;19.60;1.00
5023;DHT22;2530;47.990;7.866;2023-10-08T16:36:43;22.20;1.00
5023;DHT22;2530;47.990;7.866;2023-10-08T16:39:12;18.60;1.00
5023;DHT22;2530;47.990;7.866;2023-10-08T16:41:43;19.00;1.00
5023;DHT22;2530;47.990;7.866;2023-10-08T16:44:08;19.20;1.00
5023;DHT22;2530;47.990;7.866;2023-10-08T16:46:40;19.80;1.00
5023;DHT22;2530;47.990;7.866;2023-10-08T16:49:06;18.90;1.00
5023;DHT22;2530;47.990;7.866;2023-10-08T16:51:32;20.20;1.00
5023;DHT22;2530;47.990;7.866;2023-10-08T16:53:59;19.60;1.00
5023;DHT22;2530;47.990;7.866;2023-10-08T16:56:24;18.30;1.00
5023;DHT22;2530;47.990;7.866;2023-10-08T16:58:50;18.40;1.00
5023;DHT22;2530;47.990;7.866;2023-10-08T17:01:15;21.30;1.00
5023;DHT22;2530;47.990;7.866;2023-10-08T17:03:41;18.10;1.00
5023;DHT22;2530;47.990;7.866;2023-10-08T17:06:06;18.60;1.00
5023;DHT22;2530;47.990;7.866;2023-10-08T17:08:35;18.10;1.00
5023;DHT22;2530;47.990;7.866;2023-10-08T17:11:05;17.80;1.00
5023;DHT22;2530;47.990;7.866;2023-10-08T17:13:31;18.00;1.00
5023;DHT22;2530;47.990;7.866;2023-10-08T17:15:57;19.10;1.00
5023;DHT22;2530;47.990;7.866;2023-10-08T17:18:24;17.80;1.00
5023;DHT22;2530;47.990;7.866;2023-10-08T17:20:51;17.70;1.00
5023;DHT22;2530;47.990;7.866;2023-10-08T17:23:17;17.60;1.00
5023;DHT22;2530;47.990;7.866;2023-10-08T17:25:42;19.90;1.00
5023;DHT22;2530;47.990;7.866;2023-10-08T17:28:09;17.40;1.00
5023;DHT22;2530;47.990;7.866;2023-10-08T17:30:35;19.70;1.00
5023;DHT22;2530;47.990;7.866;2023-10-08T17:33:04;17.50;1.00
5023;DHT22;2530;47.990;7.866;2023-10-08T17:35:31;17.50;1.00
5023;DHT22;2530;47.990;7.866;2023-10-08T17:37:58;18.90;1.00
5023;DHT22;2530;47.990;7.866;2023-10-08T17:40:24;17.10;1.00
5023;DHT22;2530;47.990;7.866;2023-10-08T17:42:51;18.60;1.00
5023;DHT22;2530;47.990;7.866;2023-10-08T17:45:16;17.40;1.00
5023;DHT22;2530;47.990;7.866;2023-10-08T17:47:49;17.00;1.00
5023;DHT22;2530;47.990;7.866;2023-10-08T17:50:19;17.10;1.00
5023;DHT22;2530;47.990;7.866;2023-10-08T17:52:46;17.50;1.00
5023;DHT22;2530;47.990;7.866;2023-10-08T17:55:17;17.30;1.00
5023;DHT22;2530;47.990;7.866;2023-10-08T17:57:46;18.60;1.00
5023;DHT22;2530;47.990;7.866;2023-10-08T18:00:12;17.00;1.00
5023;DHT22;2530;47.990;7.866;2023-10-08T18:02:48;17.00;1.00
5023;DHT22;2530;47.990;7.866;2023-10-08T18:05:17;16.30;1.00
5023;DHT22;2530;47.990;7.866;2023-10-08T18:07:48;16.90;1.00
5023;DHT22;2530;47.990;7.866;2023-10-08T18:10:17;16.40;1.00
5023;DHT22;2530;47.990;7.866;2023-10-08T18:12:46;15.50;1.00
5023;DHT22;2530;47.990;7.866;2023-10-08T18:15:19;16.60;1.00
5023;DHT22;2530;47.990;7.866;2023-10-08T18:17:48;16.60;1.00
5023;DHT22;2530;47.990;7.866;2023-10-08T18:20:15;16.60;1.00
5023;DHT22;2530;47.990;7.866;2023-10-08T18:22:51;16.60;1.00
5023;DHT22;2530;47.990;7.866;2023-10-08T18:25:17;16.50;1.00
5023;DHT22;2530;47.990;7.866;2023-10-08T18:27:43;19.60;1.00
5023;DHT22;2530;47.990;7.866;2023-10-08T18:30:09;19.10;1.00
5023;DHT22;2530;47.990;7.866;2023-10-08T18:32:35;19.50;1.00
5023;DHT22;2530;47.990;7.866;2023-10-08T18:35:02;19.30;1.00
5023;DHT22;2530;47.990;7.866;2023-10-08T18:37:28;16.50;1.00
5023;DHT22;2530;47.990;7.866;2023-10-08T18:39:55;16.20;1.00
5023;DHT22;2530;47.990;7.866;2023-10-08T18:42:21;18.40;1.00
5023;DHT22;2530;47.990;7.866;2023-10-08T18:44:49;18.30;1.00
5023;DHT22;2530;47.990;7.866;2023-10-08T18:47:15;15.80;1.00
5023;DHT22;2530;47.990;7.866;2023-10-08T18:49:40;15.30;1.00
5023;DHT22;2530;47.990;7.866;2023-10-08T18:52:06;16.90;1.00
5023;DHT22;2530;47.990;7.866;2023-10-08T18:54:31;15.00;1.00
5023;DHT22;2530;47.990;7.866;2023-10-08T18:56:59;16.20;1.00
5023;DHT22;2530;47.990;7.866;2023-10-08T18:59:29;15.60;1.00
5023;DHT22;2530;47.990;7.866;2023-10-08T19:01:56;18.30;1.00
5023;DHT22;2530;47.990;7.866;2023-10-08T19:04:22;15.00;1.00
5023;DHT22;2530;47.990;7.866;2023-10-08T19:06:47;15.90;1.00
5023;DHT22;2530;47.990;7.866;2023-10-08T19:09:13;17.80;1.00
5023;DHT22;2530;47.990;7.866;2023-10-08T19:11:40;15.80;1.00
5023;DHT22;2530;47.990;7.866;2023-10-08T19:14:06;14.90;1.00
5023;DHT22;2530;47.990;7.866;2023-10-08T19:16:32;17.30;1.00
5023;DHT22;2530;47.990;7.866;2023-10-08T19:18:57;14.60;1.00
5023;DHT22;2530;47.990;7.866;2023-10-08T19:21:24;18.10;1.00
5023;DHT22;2530;47.990;7.866;2023-10-08T19:23:53;17.00;1.00
5023;DHT22;2530;47.990;7.866;2023-10-08T19:26:19;17.90;1.00
5023;DHT22;2530;47.990;7.866;2023-10-08T19:28:54;15.10;1.00
5023;DHT22;2530;47.990;7.866;2023-10-08T19:31:20;15.50;1.00
5023;DHT22;2530;47.990;7.866;2023-10-08T19:33:47;15.60;1.00
5023;DHT22;2530;47.990;7.866;2023-10-08T19:36:12;14.80;1.00
5023;DHT22;2530;47.990;7.866;2023-10-08T19:38:39;15.10;1.00
5023;DHT22;2530;47.990;7.866;2023-10-08T19:41:12;14.60;1.00